Nyk Olympus — 3EOS7 — position and weather

sailwx.info

Track history (hours):
 
Tides and Currents Weather Stations Pressure Air Temp Water Temp Dewpoint Dewpoint Depression Visibility Wind Speed Wind Dir Waves Ship Positions

Nyk Olympus

Last reported at 2017-Mar-26 04:31 UTC. Time now 2017-Mar-28 14:09 UTC.
Position N 31°56' W 080°26'.

Length 335 m; draft 11 m.

Type: Other ship. MMSI: 372478000.

Date/timePositionNaut miles runAvg speedWind from/ knotsBaromVisibWave heightAir tempDewpointWater temp
2017-Mar-26 04:31N 31°56' W 080°26'9 9.5
2017-Mar-26 03:32N 31°56' W 080°37'9 9.6
2017-Mar-26 02:33N 31°60' W 080°47'1111.4
2017-Mar-26 01:33N 32°05' W 080°59'6 5.6
2017-Mar-26 00:33N 32°05' W 081°06'4 3.7
2017-Mar-25 23:33N 32°08' W 081°08'0 0.3
2017-Mar-25 22:30N 32°08' W 081°09'0 0.0
2017-Mar-25 21:30N 32°08' W 081°09'0 0.0
2017-Mar-25 20:30N 32°08' W 081°09'0 0.0
2017-Mar-25 19:30N 32°08' W 081°09'0 0.0
2017-Mar-25 18:24N 32°08' W 081°09'0 0.0
2017-Mar-25 17:30N 32°08' W 081°09'0 0.0
2017-Mar-25 16:30N 32°08' W 081°09'0 0.0
2017-Mar-25 15:30N 32°08' W 081°09'0 0.0
2017-Mar-25 14:24N 32°08' W 081°09'0 0.0
2017-Mar-25 13:30N 32°08' W 081°09'0 0.0
2017-Mar-25 12:30N 32°08' W 081°09'0 0.0
2017-Mar-25 11:30N 32°08' W 081°09'0 0.0
2017-Mar-25 10:12N 32°08' W 081°09'0 0.0
2017-Mar-25 09:30N 32°08' W 081°09'0 0.0
2017-Mar-25 08:30N 32°08' W 081°09'0 0.0
2017-Mar-25 07:30N 32°08' W 081°09'0 0.0
2017-Mar-25 06:30N 32°08' W 081°09'0 0.0
2017-Mar-25 05:30N 32°08' W 081°09'0 0.0
2017-Mar-25 04:30N 32°08' W 081°09'0 0.0
2017-Mar-25 03:24N 32°08' W 081°09'0 0.0
2017-Mar-25 02:30N 32°08' W 081°09'0 0.0
2017-Mar-25 01:30N 32°08' W 081°09'0 0.0
2017-Mar-25 00:30N 32°08' W 081°09'0 0.0
2017-Mar-24 23:30N 32°08' W 081°09'0 0.0
2017-Mar-24 22:30N 32°08' W 081°09'0 0.0
2017-Mar-24 21:24N 32°08' W 081°09'1 1.5
2017-Mar-24 20:34N 32°07' W 081°08'5 4.7
2017-Mar-24 19:33N 32°05' W 081°03'8 7.5
2017-Mar-24 18:32N 32°02' W 080°55'1212.2
2017-Mar-24 17:33N 31°58' W 080°42'8 7.9
2017-Mar-24 16:33N 31°55' W 080°33'7 7.0
2017-Mar-24 15:33N 31°50' W 080°26'9 9.3
2017-Mar-24 14:33N 31°41' W 080°23'  
2017-Mar-22 04:33N 34°05' W 076°25'1717.5
2017-Mar-22 03:33N 34°17' W 076°09'1915.2
2017-Mar-22 02:18N 34°29' W 075°52'1014.1
2017-Mar-22 01:33N 34°37' W 075°43'30413.7
2017-Mar-21 03:27N 39°28' W 073°56'1314.6
2017-Mar-21 02:33N 39°41' W 073°53'1614.4
2017-Mar-21 01:27N 39°57' W 073°51'1313.8
2017-Mar-21 00:30N 40°10' W 073°50'9 9.4
2017-Mar-20 23:33N 40°19' W 073°49'9 8.4
2017-Mar-20 22:30N 40°28' W 073°51'1010.3
2017-Mar-20 21:33N 40°33' W 074°02'7 7.1
2017-Mar-20 20:33N 40°40' W 074°04'0 0.4
2017-Mar-20 19:32N 40°40' W 074°05'0 0.0
2017-Mar-20 18:32N 40°40' W 074°05'0 0.0
2017-Mar-20 17:32N 40°40' W 074°05'0 0.0
2017-Mar-20 16:32N 40°40' W 074°05'0 0.0
2017-Mar-20 15:32N 40°40' W 074°05'0 0.0
2017-Mar-20 14:32N 40°40' W 074°05'0 0.0
2017-Mar-20 13:34N 40°40' W 074°05'0 0.0
2017-Mar-20 12:34N 40°40' W 074°05'0 0.0
2017-Mar-20 11:33N 40°40' W 074°05'0 0.0
2017-Mar-20 10:31N 40°40' W 074°05'0 0.0
2017-Mar-20 09:33N 40°40' W 074°05'0 0.0
2017-Mar-20 08:33N 40°40' W 074°05'0 0.0
2017-Mar-20 07:33N 40°40' W 074°05'0 0.0
2017-Mar-20 06:34N 40°40' W 074°05'0 0.0
2017-Mar-20 05:34N 40°40' W 074°05'0 0.0
2017-Mar-20 04:33N 40°40' W 074°05'0 0.0
2017-Mar-20 03:34N 40°40' W 074°05'0 0.0
2017-Mar-20 02:33N 40°40' W 074°05'0 0.0
2017-Mar-20 01:33N 40°40' W 074°05'0 0.0
2017-Mar-20 00:33N 40°40' W 074°05'0 0.0
2017-Mar-19 23:34N 40°40' W 074°05'0 0.0
2017-Mar-19 22:34N 40°40' W 074°05'0 0.0
2017-Mar-19 21:33N 40°40' W 074°05'0 0.0
2017-Mar-19 20:33N 40°40' W 074°05'0 0.0
2017-Mar-19 19:34N 40°40' W 074°05'0 0.0
2017-Mar-19 18:34N 40°40' W 074°05'0 0.0
2017-Mar-19 17:33N 40°40' W 074°05'0 0.0
2017-Mar-19 16:34N 40°40' W 074°05'0 0.0
2017-Mar-19 15:33N 40°40' W 074°05'0 0.0
2017-Mar-19 14:34N 40°40' W 074°05'0 0.0
2017-Mar-19 13:33N 40°40' W 074°05'0 0.0
2017-Mar-19 12:33N 40°40' W 074°05'0 0.0
2017-Mar-19 11:34N 40°40' W 074°05'0 0.0
2017-Mar-19 10:33N 40°40' W 074°05'0 0.5
2017-Mar-19 09:33N 40°40' W 074°04'9 8.5
2017-Mar-19 08:33N 40°32' W 074°01'1010.3
2017-Mar-19 07:33N 40°27' W 073°49'8 7.9
2017-Mar-19 06:33N 40°23' W 073°40'  
Track history (hours):
 
Tides and Currents Weather Stations Pressure Air Temp Water Temp Dewpoint Dewpoint Depression Visibility Wind Speed Wind Dir Waves Ship Positions

Nyk Olympus

Last reported at 2017-Mar-26 04:31 UTC. Time now 2017-Mar-28 14:09 UTC.
Position N 31°56' W 080°26'.

Length 335 m; draft 11 m.

Type: Other ship. MMSI: 372478000.

Date/timePositionNaut miles runAvg speedWind from/ knotsBaromVisibWave heightAir tempDewpointWater temp
2017-Mar-26 04:31N 31°56' W 080°26'9 9.5
2017-Mar-26 03:32N 31°56' W 080°37'9 9.6
2017-Mar-26 02:33N 31°60' W 080°47'1111.4
2017-Mar-26 01:33N 32°05' W 080°59'6 5.6
2017-Mar-26 00:33N 32°05' W 081°06'4 3.7
2017-Mar-25 23:33N 32°08' W 081°08'0 0.3
2017-Mar-25 22:30N 32°08' W 081°09'0 0.0
2017-Mar-25 21:30N 32°08' W 081°09'0 0.0
2017-Mar-25 20:30N 32°08' W 081°09'0 0.0
2017-Mar-25 19:30N 32°08' W 081°09'0 0.0
2017-Mar-25 18:24N 32°08' W 081°09'0 0.0
2017-Mar-25 17:30N 32°08' W 081°09'0 0.0
2017-Mar-25 16:30N 32°08' W 081°09'0 0.0
2017-Mar-25 15:30N 32°08' W 081°09'0 0.0
2017-Mar-25 14:24N 32°08' W 081°09'0 0.0
2017-Mar-25 13:30N 32°08' W 081°09'0 0.0
2017-Mar-25 12:30N 32°08' W 081°09'0 0.0
2017-Mar-25 11:30N 32°08' W 081°09'0 0.0
2017-Mar-25 10:12N 32°08' W 081°09'0 0.0
2017-Mar-25 09:30N 32°08' W 081°09'0 0.0
2017-Mar-25 08:30N 32°08' W 081°09'0 0.0
2017-Mar-25 07:30N 32°08' W 081°09'0 0.0
2017-Mar-25 06:30N 32°08' W 081°09'0 0.0
2017-Mar-25 05:30N 32°08' W 081°09'0 0.0
2017-Mar-25 04:30N 32°08' W 081°09'0 0.0
2017-Mar-25 03:24N 32°08' W 081°09'0 0.0
2017-Mar-25 02:30N 32°08' W 081°09'0 0.0
2017-Mar-25 01:30N 32°08' W 081°09'0 0.0
2017-Mar-25 00:30N 32°08' W 081°09'0 0.0
2017-Mar-24 23:30N 32°08' W 081°09'0 0.0
2017-Mar-24 22:30N 32°08' W 081°09'0 0.0
2017-Mar-24 21:24N 32°08' W 081°09'1 1.5
2017-Mar-24 20:34N 32°07' W 081°08'5 4.7
2017-Mar-24 19:33N 32°05' W 081°03'8 7.5
2017-Mar-24 18:32N 32°02' W 080°55'1212.2
2017-Mar-24 17:33N 31°58' W 080°42'8 7.9
2017-Mar-24 16:33N 31°55' W 080°33'7 7.0
2017-Mar-24 15:33N 31°50' W 080°26'9 9.3
2017-Mar-24 14:33N 31°41' W 080°23'  
2017-Mar-22 04:33N 34°05' W 076°25'1717.5
2017-Mar-22 03:33N 34°17' W 076°09'1915.2
2017-Mar-22 02:18N 34°29' W 075°52'1014.1
2017-Mar-22 01:33N 34°37' W 075°43'30413.7
2017-Mar-21 03:27N 39°28' W 073°56'1314.6
2017-Mar-21 02:33N 39°41' W 073°53'1614.4
2017-Mar-21 01:27N 39°57' W 073°51'1313.8
2017-Mar-21 00:30N 40°10' W 073°50'9 9.4
2017-Mar-20 23:33N 40°19' W 073°49'9 8.4
2017-Mar-20 22:30N 40°28' W 073°51'1010.3
2017-Mar-20 21:33N 40°33' W 074°02'7 7.1
2017-Mar-20 20:33N 40°40' W 074°04'0 0.4
2017-Mar-20 19:32N 40°40' W 074°05'0 0.0
2017-Mar-20 18:32N 40°40' W 074°05'0 0.0
2017-Mar-20 17:32N 40°40' W 074°05'0 0.0
2017-Mar-20 16:32N 40°40' W 074°05'0 0.0
2017-Mar-20 15:32N 40°40' W 074°05'0 0.0
2017-Mar-20 14:32N 40°40' W 074°05'0 0.0
2017-Mar-20 13:34N 40°40' W 074°05'0 0.0
2017-Mar-20 12:34N 40°40' W 074°05'0 0.0
2017-Mar-20 11:33N 40°40' W 074°05'0 0.0
2017-Mar-20 10:31N 40°40' W 074°05'0 0.0
2017-Mar-20 09:33N 40°40' W 074°05'0 0.0
2017-Mar-20 08:33N 40°40' W 074°05'0 0.0
2017-Mar-20 07:33N 40°40' W 074°05'0 0.0
2017-Mar-20 06:34N 40°40' W 074°05'0 0.0
2017-Mar-20 05:34N 40°40' W 074°05'0 0.0
2017-Mar-20 04:33N 40°40' W 074°05'0 0.0
2017-Mar-20 03:34N 40°40' W 074°05'0 0.0
2017-Mar-20 02:33N 40°40' W 074°05'0 0.0
2017-Mar-20 01:33N 40°40' W 074°05'0 0.0
2017-Mar-20 00:33N 40°40' W 074°05'0 0.0
2017-Mar-19 23:34N 40°40' W 074°05'0 0.0
2017-Mar-19 22:34N 40°40' W 074°05'0 0.0
2017-Mar-19 21:33N 40°40' W 074°05'0 0.0
2017-Mar-19 20:33N 40°40' W 074°05'0 0.0
2017-Mar-19 19:34N 40°40' W 074°05'0 0.0
2017-Mar-19 18:34N 40°40' W 074°05'0 0.0
2017-Mar-19 17:33N 40°40' W 074°05'0 0.0
2017-Mar-19 16:34N 40°40' W 074°05'0 0.0
2017-Mar-19 15:33N 40°40' W 074°05'0 0.0
2017-Mar-19 14:34N 40°40' W 074°05'0 0.0
2017-Mar-19 13:33N 40°40' W 074°05'0 0.0
2017-Mar-19 12:33N 40°40' W 074°05'0 0.0
2017-Mar-19 11:34N 40°40' W 074°05'0 0.0
2017-Mar-19 10:33N 40°40' W 074°05'0 0.5
2017-Mar-19 09:33N 40°40' W 074°04'9 8.5
2017-Mar-19 08:33N 40°32' W 074°01'1010.3
2017-Mar-19 07:33N 40°27' W 073°49'8 7.9
2017-Mar-19 06:33N 40°23' W 073°40'  

Dump ship's entire track history